createdAt,value
2018-09-15T00:00:55.992Z,12.89
2018-09-15T00:03:25.412Z,12.94
2018-09-15T00:05:54.777Z,13.17
2018-09-15T00:08:23.587Z,13.56
2018-09-15T00:10:52.449Z,13.76
2018-09-15T00:13:22.313Z,13.93
2018-09-15T00:15:51.383Z,14.03
2018-09-15T00:18:20.159Z,13.85
2018-09-15T00:20:49.254Z,13.41
2018-09-15T00:23:18.150Z,13.12
2018-09-15T00:25:47.193Z,12.78
2018-09-15T00:28:17.032Z,12.70
2018-09-15T00:30:46.108Z,12.67
2018-09-15T00:33:15.109Z,12.77
2018-09-15T00:35:44.684Z,12.84
2018-09-15T00:38:14.198Z,12.95
2018-09-15T00:40:42.994Z,12.97
2018-09-15T00:43:11.879Z,13.15
2018-09-15T00:45:40.838Z,13.25
2018-09-15T00:48:09.674Z,13.21
2018-09-15T00:50:39.197Z,13.19
2018-09-15T00:53:08.123Z,13.10
2018-09-15T00:55:37.598Z,13.08
2018-09-15T00:58:07.228Z,13.28
2018-09-15T01:00:35.917Z,13.33
2018-09-15T01:03:05.198Z,13.35
2018-09-15T01:05:34.401Z,13.43
2018-09-15T01:08:03.336Z,13.40
2018-09-15T01:10:32.062Z,13.46
2018-09-15T01:13:00.972Z,13.54
2018-09-15T01:15:29.737Z,13.68
2018-09-15T01:17:58.583Z,13.72
2018-09-15T01:20:27.223Z,13.85
2018-09-15T01:22:56.112Z,13.95
2018-09-15T01:25:24.909Z,14.04
2018-09-15T01:27:53.897Z,14.16
2018-09-15T01:30:23.342Z,14.17
2018-09-15T01:32:52.175Z,14.21
2018-09-15T01:35:21.078Z,14.18
2018-09-15T01:37:50.452Z,14.24
2018-09-15T01:40:19.357Z,14.28
2018-09-15T01:42:48.648Z,14.29
2018-09-15T01:45:17.292Z,14.34
2018-09-15T01:47:46.041Z,14.39
2018-09-15T01:50:15.368Z,14.42
2018-09-15T01:52:44.103Z,14.46
2018-09-15T01:55:13.087Z,14.39
2018-09-15T01:57:41.893Z,14.31
2018-09-15T02:00:10.674Z,14.20
2018-09-15T02:02:39.614Z,14.19
2018-09-15T02:05:08.433Z,14.02
2018-09-15T02:07:37.378Z,13.92
2018-09-15T02:10:06.743Z,13.90
2018-09-15T02:12:35.911Z,13.90
2018-09-15T02:15:04.991Z,13.92
2018-09-15T02:17:34.799Z,13.91
2018-09-15T02:20:04.870Z,13.92
2018-09-15T02:22:34.618Z,13.85
2018-09-15T02:25:03.402Z,13.77
2018-09-15T02:27:32.266Z,13.74
2018-09-15T02:30:01.064Z,13.75
2018-09-15T02:32:30.029Z,13.72
2018-09-15T02:34:59.104Z,13.83
2018-09-15T02:37:27.969Z,13.88
2018-09-15T02:39:57.207Z,13.76
2018-09-15T02:42:26.304Z,13.82
2018-09-15T02:44:56.008Z,13.77
2018-09-15T02:47:24.945Z,13.71
2018-09-15T02:49:54.064Z,13.67
2018-09-15T02:52:23.343Z,13.71
2018-09-15T02:54:52.327Z,13.65
2018-09-15T02:57:21.697Z,13.68
2018-09-15T02:59:51.214Z,13.65
2018-09-15T03:02:19.977Z,13.65
2018-09-15T03:04:48.869Z,13.75
2018-09-15T03:07:18.355Z,13.90
2018-09-15T03:09:47.183Z,13.94
2018-09-15T03:12:15.931Z,14.01
2018-09-15T03:14:45.023Z,14.07
2018-09-15T03:17:13.848Z,13.92
2018-09-15T03:19:43.188Z,13.78
2018-09-15T03:22:12.526Z,13.59
2018-09-15T03:24:41.592Z,13.53
2018-09-15T03:27:11.586Z,13.52
2018-09-15T03:29:41.002Z,13.36
2018-09-15T03:32:09.847Z,13.33
2018-09-15T03:34:38.603Z,13.26
2018-09-15T03:37:07.998Z,13.25
2018-09-15T03:39:36.819Z,13.15
2018-09-15T03:42:05.731Z,13.11
2018-09-15T03:44:34.884Z,12.93
2018-09-15T03:47:03.649Z,12.88
2018-09-15T03:49:32.447Z,12.93
2018-09-15T03:52:02.228Z,12.80
2018-09-15T03:54:31.209Z,12.81
2018-09-15T03:57:00.118Z,12.72
2018-09-15T03:59:29.899Z,12.71
2018-09-15T04:01:59.807Z,12.81
2018-09-15T04:04:28.788Z,12.81
2018-09-15T04:06:58.129Z,12.76
2018-09-15T04:09:26.971Z,12.74
2018-09-15T04:11:55.706Z,12.85
2018-09-15T04:14:24.451Z,12.78
2018-09-15T04:16:53.868Z,12.71
2018-09-15T04:19:23.271Z,12.55
2018-09-15T04:21:52.127Z,12.45
2018-09-15T04:24:21.402Z,12.49
2018-09-15T04:26:50.693Z,12.53
2018-09-15T04:29:19.608Z,12.60
2018-09-15T04:31:48.452Z,12.51
2018-09-15T04:34:17.327Z,12.36
2018-09-15T04:36:46.335Z,12.37
2018-09-15T04:39:15.078Z,12.37
2018-09-15T04:41:43.867Z,12.27
2018-09-15T04:44:12.756Z,12.18
2018-09-15T04:46:41.748Z,12.12
2018-09-15T04:49:10.683Z,12.21
2018-09-15T04:51:40.049Z,12.31
2018-09-15T04:54:09.252Z,12.48
2018-09-15T04:56:38.140Z,12.60
2018-09-15T04:59:06.863Z,12.75
2018-09-15T05:01:35.693Z,12.74
2018-09-15T05:04:05.773Z,12.70
2018-09-15T05:06:35.024Z,12.55
2018-09-15T05:09:04.549Z,12.53
2018-09-15T05:11:33.323Z,12.73
2018-09-15T05:14:02.181Z,13.01
2018-09-15T05:16:30.942Z,13.12
2018-09-15T05:19:00.335Z,13.12
2018-09-15T05:21:29.151Z,13.08
2018-09-15T05:23:58.406Z,13.17
2018-09-15T05:26:27.291Z,13.16
2018-09-15T05:28:56.088Z,13.17
2018-09-15T05:31:24.926Z,13.27
2018-09-15T05:33:53.807Z,13.28
2018-09-15T05:36:22.442Z,13.20
2018-09-15T05:38:51.211Z,13.10
2018-09-15T05:41:20.147Z,12.96
2018-09-15T05:43:49.072Z,12.98
2018-09-15T05:46:18.076Z,12.93
2018-09-15T05:48:47.097Z,12.90
2018-09-15T05:51:16.468Z,12.99
2018-09-15T05:53:45.382Z,12.85
2018-09-15T05:56:14.323Z,12.98
2018-09-15T05:58:43.148Z,13.11
2018-09-15T06:01:12.096Z,13.15
2018-09-15T06:03:40.828Z,13.19
2018-09-15T06:06:11.032Z,13.31
2018-09-15T06:08:39.712Z,13.42
2018-09-15T06:11:08.497Z,13.57
2018-09-15T06:13:37.475Z,13.80
2018-09-15T06:16:06.197Z,13.88
2018-09-15T06:18:35.885Z,13.81
2018-09-15T06:21:05.471Z,13.80
2018-09-15T06:23:35.290Z,13.59
2018-09-15T06:26:04.938Z,13.53
2018-09-15T06:28:34.897Z,13.59
2018-09-15T06:31:03.778Z,13.72
2018-09-15T06:33:33.201Z,13.84
2018-09-15T06:36:01.966Z,14.05
2018-09-15T06:38:31.509Z,13.97
2018-09-15T06:41:00.969Z,14.02
2018-09-15T06:43:29.696Z,14.34
2018-09-15T06:45:59.113Z,15.29
2018-09-15T06:48:28.167Z,15.45
2018-09-15T06:50:57.053Z,15.99
2018-09-15T06:53:25.816Z,16.73
2018-09-15T06:55:54.608Z,15.82
2018-09-15T06:58:23.507Z,15.40
2018-09-15T07:00:52.419Z,15.07
2018-09-15T07:03:21.392Z,14.93
2018-09-15T07:05:50.147Z,15.04
2018-09-15T07:08:19.133Z,15.32
2018-09-15T07:10:47.997Z,15.58
2018-09-15T07:13:16.680Z,15.62
2018-09-15T07:15:45.546Z,15.57
2018-09-15T07:18:14.547Z,15.49
2018-09-15T07:20:43.717Z,15.52
2018-09-15T07:23:12.465Z,15.60
2018-09-15T07:25:41.926Z,15.89
2018-09-15T07:28:11.362Z,16.18
2018-09-15T07:30:40.231Z,16.27
2018-09-15T07:33:09.078Z,16.18
2018-09-15T07:35:37.894Z,16.28
2018-09-15T07:38:06.827Z,16.21
2018-09-15T07:40:35.636Z,16.30
2018-09-15T07:43:04.562Z,16.51
2018-09-15T07:45:33.539Z,16.53
2018-09-15T07:48:02.493Z,16.53
2018-09-15T07:50:31.158Z,16.53
2018-09-15T07:52:59.869Z,16.66
2018-09-15T07:55:28.631Z,16.62
2018-09-15T07:57:57.423Z,16.69
2018-09-15T08:00:26.177Z,16.65
2018-09-15T08:02:54.861Z,16.50
2018-09-15T08:05:23.601Z,16.41
2018-09-15T08:07:53.322Z,16.36
2018-09-15T08:10:22.083Z,16.31
2018-09-15T08:12:50.801Z,16.26
2018-09-15T08:15:19.681Z,16.43
2018-09-15T08:17:49.436Z,16.53
2018-09-15T08:20:18.172Z,16.70
2018-09-15T08:22:47.402Z,16.89
2018-09-15T08:25:16.200Z,17.06
2018-09-15T08:27:46.021Z,17.18
2018-09-15T08:30:14.896Z,17.22
2018-09-15T08:32:43.774Z,17.29
2018-09-15T08:35:12.763Z,17.22
2018-09-15T08:37:41.640Z,17.24
2018-09-15T08:40:10.442Z,17.28
2018-09-15T08:42:39.436Z,17.28
2018-09-15T08:45:08.322Z,17.15
2018-09-15T08:47:37.288Z,17.20
2018-09-15T08:50:06.482Z,17.23
2018-09-15T08:52:36.007Z,17.17
2018-09-15T08:55:06.383Z,17.09
2018-09-15T08:57:36.226Z,17.13
2018-09-15T09:00:06.036Z,16.99
2018-09-15T09:02:35.762Z,17.03
2018-09-15T09:05:04.821Z,17.24
2018-09-15T09:07:33.662Z,17.36
2018-09-15T09:10:02.423Z,17.28
2018-09-15T09:12:31.411Z,17.48
2018-09-15T09:15:00.106Z,17.70
2018-09-15T09:17:28.912Z,17.95
2018-09-15T09:19:58.412Z,18.28
2018-09-15T09:22:27.376Z,18.64
2018-09-15T09:24:56.845Z,18.96
2018-09-15T09:27:25.655Z,19.09
2018-09-15T09:29:54.515Z,19.14
2018-09-15T09:32:23.403Z,19.17
2018-09-15T09:34:52.483Z,19.32
2018-09-15T09:37:21.246Z,19.35
2018-09-15T09:39:50.068Z,19.67
2018-09-15T09:42:19.035Z,20.10
2018-09-15T09:44:48.007Z,19.91
2018-09-15T09:47:17.486Z,19.68
2018-09-15T09:49:46.300Z,19.24
2018-09-15T09:52:15.153Z,18.90
2018-09-15T09:54:43.902Z,18.49
2018-09-15T09:57:12.557Z,18.18
2018-09-15T09:59:41.572Z,18.28
2018-09-15T10:02:13.140Z,18.76
2018-09-15T10:04:41.898Z,19.26
2018-09-15T10:07:11.290Z,19.70
2018-09-15T10:09:41.171Z,20.08
2018-09-15T10:12:11.126Z,20.32
2018-09-15T10:14:40.077Z,20.73
2018-09-15T10:17:08.833Z,20.93
2018-09-15T10:19:37.861Z,21.36
2018-09-15T10:22:07.036Z,21.47
2018-09-15T10:24:36.137Z,21.49
2018-09-15T10:27:05.117Z,21.45
2018-09-15T10:29:34.416Z,21.26
2018-09-15T10:32:04.000Z,21.57
2018-09-15T10:34:32.827Z,21.43
2018-09-15T10:37:01.655Z,21.13
2018-09-15T10:39:31.187Z,20.79
2018-09-15T10:41:59.923Z,20.55
2018-09-15T10:44:28.715Z,20.65
2018-09-15T10:46:57.658Z,20.61
2018-09-15T10:49:26.432Z,20.62
2018-09-15T10:51:55.228Z,20.50
2018-09-15T10:54:24.113Z,20.57
2018-09-15T10:56:53.088Z,20.27
2018-09-15T10:59:21.865Z,19.96
2018-09-15T11:01:51.390Z,19.72
2018-09-15T11:04:20.150Z,19.89
2018-09-15T11:06:49.071Z,20.05
2018-09-15T11:09:17.909Z,19.96
2018-09-15T11:11:46.770Z,20.23
2018-09-15T11:14:15.680Z,20.37
2018-09-15T11:16:44.709Z,20.75
2018-09-15T11:19:13.495Z,21.27
2018-09-15T11:21:42.296Z,21.89
2018-09-15T11:24:11.161Z,21.92
2018-09-15T11:26:40.705Z,21.54
2018-09-15T11:29:09.528Z,21.10
2018-09-15T11:31:39.355Z,20.52
2018-09-15T11:34:08.363Z,20.45
2018-09-15T11:36:37.766Z,20.46
2018-09-15T11:39:08.985Z,20.25
2018-09-15T11:41:38.005Z,20.10
2018-09-15T11:44:06.877Z,20.21
2018-09-15T11:46:35.817Z,20.20
2018-09-15T11:49:04.783Z,20.21
2018-09-15T11:51:33.720Z,19.97
2018-09-15T11:54:03.521Z,19.77
2018-09-15T11:56:32.290Z,19.64
2018-09-15T11:59:01.169Z,19.46
2018-09-15T12:01:30.677Z,19.45
2018-09-15T12:03:59.477Z,19.36
2018-09-15T12:06:28.150Z,19.17
2018-09-15T12:08:56.829Z,18.78
2018-09-15T12:11:25.634Z,18.66
2018-09-15T12:13:54.423Z,18.48
2018-09-15T12:16:23.790Z,18.60
2018-09-15T12:18:52.577Z,18.61
2018-09-15T12:21:21.560Z,18.53
2018-09-15T12:23:50.535Z,18.39
2018-09-15T12:26:19.320Z,18.29
2018-09-15T12:28:47.980Z,18.31
2018-09-15T12:31:16.828Z,18.30
2018-09-15T12:33:45.625Z,18.30
2018-09-15T12:36:14.323Z,18.24
2018-09-15T12:38:43.019Z,18.21
2018-09-15T12:41:12.627Z,18.20
2018-09-15T12:43:41.596Z,18.20
2018-09-15T12:46:11.067Z,18.15
2018-09-15T12:48:39.885Z,18.32
2018-09-15T12:51:09.333Z,18.30
2018-09-15T12:53:38.346Z,18.45
2018-09-15T12:56:07.257Z,18.68
2018-09-15T12:58:36.231Z,19.01
2018-09-15T13:01:05.075Z,19.38
2018-09-15T13:03:33.745Z,19.65
2018-09-15T13:06:02.860Z,19.82
2018-09-15T13:08:31.961Z,19.75
2018-09-15T13:11:01.060Z,19.76
2018-09-15T13:13:29.930Z,19.52
2018-09-15T13:15:58.647Z,19.23
2018-09-15T13:18:27.515Z,18.84
2018-09-15T13:20:57.144Z,18.64
2018-09-15T13:23:25.883Z,18.23
2018-09-15T13:25:54.584Z,18.23
2018-09-15T13:28:23.491Z,18.10
2018-09-15T13:30:52.129Z,18.20
2018-09-15T13:33:20.802Z,18.08
2018-09-15T13:35:49.807Z,18.00
2018-09-15T13:38:18.523Z,17.99
2018-09-15T13:40:47.357Z,17.83
2018-09-15T13:43:15.985Z,17.79
2018-09-15T13:45:44.770Z,17.69
2018-09-15T13:48:13.456Z,17.47
2018-09-15T13:50:42.201Z,17.36
2018-09-15T13:53:10.937Z,17.32
2018-09-15T13:55:39.567Z,17.31
2018-09-15T13:58:08.290Z,17.40
2018-09-15T14:00:36.950Z,17.42
2018-09-15T14:03:06.647Z,17.42
2018-09-15T14:05:35.430Z,17.79
2018-09-15T14:08:04.385Z,18.29
2018-09-15T14:10:33.360Z,18.24
2018-09-15T14:13:02.203Z,18.07
2018-09-15T14:15:31.063Z,17.98
2018-09-15T14:17:59.853Z,17.99
2018-09-15T14:20:29.270Z,18.34
2018-09-15T14:22:57.930Z,18.55
2018-09-15T14:25:27.209Z,18.55
2018-09-15T14:27:55.870Z,18.63
2018-09-15T14:30:24.543Z,18.62
2018-09-15T14:32:53.211Z,18.72
2018-09-15T14:35:22.157Z,18.57
2018-09-15T14:37:50.953Z,18.38
2018-09-15T14:40:20.982Z,18.22
2018-09-15T14:42:50.289Z,18.12
2018-09-15T14:45:20.049Z,18.11
2018-09-15T14:47:48.893Z,18.02
2018-09-15T14:50:17.674Z,18.03
2018-09-15T14:52:46.454Z,18.08
2018-09-15T14:55:15.299Z,18.16
2018-09-15T14:57:44.313Z,18.30
2018-09-15T15:00:13.064Z,18.33
2018-09-15T15:02:41.989Z,18.62
2018-09-15T15:05:10.991Z,18.90
2018-09-15T15:07:40.371Z,18.94
2018-09-15T15:10:09.181Z,18.84
2018-09-15T15:12:39.141Z,18.81
2018-09-15T15:15:09.095Z,18.61
2018-09-15T15:17:37.943Z,18.46
2018-09-15T15:20:07.079Z,18.41
2018-09-15T15:22:35.936Z,18.37
2018-09-15T15:25:05.460Z,18.38
2018-09-15T15:27:34.231Z,18.25
2018-09-15T15:30:04.116Z,18.13
2018-09-15T15:32:32.983Z,18.11
2018-09-15T15:35:01.795Z,18.10
2018-09-15T15:37:31.824Z,18.23
2018-09-15T15:40:00.590Z,18.09
2018-09-15T15:42:29.307Z,18.11
2018-09-15T15:44:58.015Z,18.22
2018-09-15T15:47:26.629Z,18.48
2018-09-15T15:49:55.311Z,18.39
2018-09-15T15:52:23.990Z,18.51
2018-09-15T15:54:52.689Z,18.57
2018-09-15T16:00:28.231Z,18.63
2018-09-15T16:02:56.951Z,18.76
2018-09-15T16:05:26.031Z,18.64
2018-09-15T16:07:54.893Z,18.56
2018-09-15T16:10:23.800Z,18.42
2018-09-15T16:12:52.479Z,18.55
2018-09-15T16:15:21.151Z,18.87
2018-09-15T16:17:50.540Z,18.85
2018-09-15T16:20:19.208Z,18.87
2018-09-15T16:22:48.405Z,18.82
2018-09-15T16:25:17.206Z,19.05
2018-09-15T16:27:46.826Z,19.03
2018-09-15T16:30:15.723Z,18.90
2018-09-15T16:32:44.557Z,18.72
2018-09-15T16:35:13.373Z,18.77
2018-09-15T16:37:42.325Z,18.74
2018-09-15T16:40:11.756Z,18.79
2018-09-15T16:42:40.760Z,18.75
2018-09-15T16:45:11.779Z,18.49
2018-09-15T16:47:41.657Z,18.35
2018-09-15T16:50:10.448Z,18.35
2018-09-15T16:52:39.315Z,18.15
2018-09-15T16:55:08.368Z,17.75
2018-09-15T16:57:37.340Z,17.55
2018-09-15T17:00:06.163Z,17.39
2018-09-15T17:02:34.984Z,17.28
2018-09-15T17:05:03.920Z,17.33
2018-09-15T17:07:32.624Z,17.30
2018-09-15T17:10:01.276Z,17.22
2018-09-15T17:12:29.971Z,17.34
2018-09-15T17:14:58.651Z,17.26
2018-09-15T17:17:27.390Z,17.19
2018-09-15T17:19:56.148Z,17.18
2018-09-15T17:22:24.909Z,17.19
2018-09-15T17:24:53.538Z,17.09
2018-09-15T17:27:22.231Z,17.11
2018-09-15T17:29:50.964Z,17.13
2018-09-15T17:32:21.255Z,17.07
2018-09-15T17:34:50.644Z,16.93
2018-09-15T17:37:19.795Z,16.73
2018-09-15T17:39:48.601Z,16.59
2018-09-15T17:42:17.301Z,16.44
2018-09-15T17:44:46.266Z,16.29
2018-09-15T17:47:15.125Z,16.16
2018-09-15T17:49:44.911Z,16.21
2018-09-15T17:52:13.709Z,16.19
2018-09-15T17:54:42.740Z,16.29
2018-09-15T17:57:11.534Z,16.17
2018-09-15T17:59:40.490Z,16.08
2018-09-15T18:02:09.491Z,15.90
2018-09-15T18:04:38.487Z,15.88
2018-09-15T18:07:07.514Z,15.85
2018-09-15T18:09:36.932Z,15.68
2018-09-15T18:12:05.860Z,15.51
2018-09-15T18:14:34.851Z,15.27
2018-09-15T18:17:04.365Z,15.02
2018-09-15T18:19:33.186Z,14.82
2018-09-15T18:22:01.995Z,14.65
2018-09-15T18:24:30.840Z,14.65
2018-09-15T18:26:59.654Z,14.49
2018-09-15T18:29:28.300Z,14.43
2018-09-15T18:31:57.589Z,14.64
2018-09-15T18:34:27.231Z,14.70
2018-09-15T18:36:56.134Z,14.44
2018-09-15T18:39:25.856Z,14.23
2018-09-15T18:41:55.129Z,14.20
2018-09-15T18:44:24.693Z,14.07
2018-09-15T18:46:53.516Z,14.00
2018-09-15T18:49:22.740Z,13.94
2018-09-15T18:51:51.375Z,13.84
2018-09-15T18:54:20.092Z,13.85
2018-09-15T18:56:48.988Z,13.77
2018-09-15T18:59:17.684Z,13.93
2018-09-15T19:01:46.395Z,13.86
2018-09-15T19:04:15.200Z,13.64
2018-09-15T19:06:44.049Z,13.58
2018-09-15T19:09:13.175Z,13.61
2018-09-15T19:11:42.236Z,13.52
2018-09-15T19:14:11.516Z,13.39
2018-09-15T19:16:41.133Z,13.46
2018-09-15T19:19:09.807Z,13.49
2018-09-15T19:21:38.604Z,13.45
2018-09-15T19:24:07.948Z,13.39
2018-09-15T19:26:37.469Z,13.32
2018-09-15T19:29:06.554Z,13.29
2018-09-15T19:31:35.398Z,13.35
2018-09-15T19:34:04.064Z,13.43
2018-09-15T19:36:33.534Z,13.45
2018-09-15T19:39:03.807Z,13.30
2018-09-15T19:41:32.484Z,13.16
2018-09-15T19:44:01.403Z,13.15
2018-09-15T19:46:30.999Z,13.30
2018-09-15T19:48:59.713Z,13.30
2018-09-15T19:51:28.618Z,13.15
2018-09-15T19:53:57.262Z,13.03
2018-09-15T19:56:25.909Z,13.02
2018-09-15T19:58:54.559Z,12.89
2018-09-15T20:01:23.324Z,12.83
2018-09-15T20:03:52.047Z,12.87
2018-09-15T20:06:20.713Z,13.01
2018-09-15T20:08:49.414Z,13.07
2018-09-15T20:11:18.213Z,12.98
2018-09-15T20:13:47.254Z,12.88
2018-09-15T20:16:14.818Z,12.87
2018-09-15T20:18:42.216Z,12.91
2018-09-15T20:21:09.628Z,12.91
2018-09-15T20:23:38.709Z,13.00
2018-09-15T20:26:07.792Z,13.14
2018-09-15T20:28:36.643Z,12.98
2018-09-15T20:31:05.435Z,13.00
2018-09-15T20:33:34.567Z,13.02
2018-09-15T20:36:04.217Z,12.90
2018-09-15T20:38:33.164Z,12.68
2018-09-15T20:41:02.235Z,12.65
2018-09-15T20:43:31.287Z,12.72
2018-09-15T20:45:59.999Z,12.81
2018-09-15T20:48:28.721Z,12.88
2018-09-15T20:50:57.435Z,12.66
2018-09-15T20:53:26.146Z,12.55
2018-09-15T20:55:54.869Z,12.39
2018-09-15T20:58:23.517Z,12.28
2018-09-15T21:00:52.514Z,12.26
2018-09-15T21:03:21.173Z,12.18
2018-09-15T21:05:50.230Z,12.13
2018-09-15T21:08:19.090Z,12.06
2018-09-15T21:10:47.839Z,11.93
2018-09-15T21:13:17.137Z,11.83
2018-09-15T21:15:46.931Z,11.93
2018-09-15T21:18:15.860Z,11.95
2018-09-15T21:20:45.360Z,11.89
2018-09-15T21:23:14.970Z,11.87
2018-09-15T21:25:43.898Z,11.82
2018-09-15T21:28:12.800Z,11.70
2018-09-15T21:30:42.452Z,11.62
2018-09-15T21:33:11.333Z,11.61
2018-09-15T21:35:40.658Z,11.68
2018-09-15T21:38:09.795Z,11.79
2018-09-15T21:40:38.789Z,11.70
2018-09-15T21:43:07.948Z,11.54
2018-09-15T21:45:36.873Z,11.50
2018-09-15T21:48:05.658Z,11.74
2018-09-15T21:50:34.488Z,12.09
2018-09-15T21:53:03.147Z,12.13
2018-09-15T21:55:31.899Z,12.36
2018-09-15T21:58:00.689Z,12.80
2018-09-15T22:00:29.555Z,13.08
2018-09-15T22:02:58.364Z,13.29
2018-09-15T22:05:27.258Z,13.46
2018-09-15T22:07:56.753Z,12.93
2018-09-15T22:10:25.707Z,12.55
2018-09-15T22:12:54.483Z,12.28
2018-09-15T22:15:25.549Z,12.03
2018-09-15T22:17:55.648Z,11.85
2018-09-15T22:20:24.553Z,11.78
2018-09-15T22:22:53.544Z,11.87
2018-09-15T22:25:22.391Z,12.08
2018-09-15T22:27:51.768Z,12.01
2018-09-15T22:30:20.633Z,11.84
2018-09-15T22:32:49.432Z,11.65
2018-09-15T22:35:18.389Z,11.54
2018-09-15T22:37:47.248Z,11.46
2018-09-15T22:40:16.171Z,11.48
2018-09-15T22:42:45.413Z,11.58
2018-09-15T22:45:14.947Z,11.50
2018-09-15T22:47:43.917Z,11.37
2018-09-15T22:50:13.002Z,11.30
2018-09-15T22:52:41.782Z,11.29
2018-09-15T22:55:10.578Z,11.37
2018-09-15T22:57:40.263Z,11.42
2018-09-15T23:00:09.999Z,11.49
2018-09-15T23:02:38.953Z,11.39
2018-09-15T23:05:08.150Z,11.27
2018-09-15T23:07:37.078Z,11.20
2018-09-15T23:10:06.199Z,11.24
2018-09-15T23:12:35.258Z,11.30
2018-09-15T23:15:04.244Z,11.26
2018-09-15T23:17:33.235Z,11.30
2018-09-15T23:20:02.129Z,11.39
2018-09-15T23:22:31.077Z,11.30
2018-09-15T23:24:59.978Z,11.21
2018-09-15T23:27:28.695Z,11.16
2018-09-15T23:29:57.487Z,11.10
2018-09-15T23:32:26.237Z,11.25
2018-09-15T23:34:55.762Z,11.40
2018-09-15T23:37:24.481Z,11.23
2018-09-15T23:39:53.240Z,11.05
2018-09-15T23:42:22.497Z,10.98
2018-09-15T23:44:51.443Z,11.05
2018-09-15T23:47:20.272Z,11.46
2018-09-15T23:49:49.264Z,11.60
2018-09-15T23:52:18.124Z,11.67
2018-09-15T23:54:47.069Z,11.92
2018-09-15T23:57:15.978Z,12.25
2018-09-15T23:59:45.683Z,12.43
